sensor_id;sensor_type;location;lat;lon;timestamp;pressure;altitude;pressure_sealevel;temperature;humidity
54870;BME280;40756;-37.950;145.008;2023-01-29T00:01:40;100973.72;;;25.78;44.63
54870;BME280;40756;-37.950;145.008;2023-01-29T00:04:10;100974.15;;;25.95;44.97
54870;BME280;40756;-37.950;145.008;2023-01-29T00:06:39;100982.66;;;26.14;44.42
54870;BME280;40756;-37.950;145.008;2023-01-29T00:09:09;100989.40;;;25.61;45.32
54870;BME280;40756;-37.950;145.008;2023-01-29T00:11:39;100988.89;;;26.09;44.68
54870;BME280;40756;-37.950;145.008;2023-01-29T00:14:09;100987.91;;;25.63;44.68
54870;BME280;40756;-37.950;145.008;2023-01-29T00:16:39;100994.26;;;25.51;46.13
54870;BME280;40756;-37.950;145.008;2023-01-29T00:19:09;101000.46;;;25.07;47.68
54870;BME280;40756;-37.950;145.008;2023-01-29T00:21:39;101008.48;;;24.64;48.77
54870;BME280;40756;-37.950;145.008;2023-01-29T00:24:08;101013.43;;;23.65;50.60
54870;BME280;40756;-37.950;145.008;2023-01-29T00:26:37;101018.70;;;24.02;50.60
54870;BME280;40756;-37.950;145.008;2023-01-29T00:29:07;101024.89;;;22.94;51.70
54870;BME280;40756;-37.950;145.008;2023-01-29T00:31:36;101026.43;;;23.55;51.65
54870;BME280;40756;-37.950;145.008;2023-01-29T00:34:06;101022.87;;;23.55;51.78
54870;BME280;40756;-37.950;145.008;2023-01-29T00:36:36;101021.12;;;23.56;52.39
54870;BME280;40756;-37.950;145.008;2023-01-29T00:39:05;101028.92;;;23.10;52.35
54870;BME280;40756;-37.950;145.008;2023-01-29T00:41:35;101032.04;;;23.66;52.75
54870;BME280;40756;-37.950;145.008;2023-01-29T00:44:05;101027.47;;;23.86;52.52
54870;BME280;40756;-37.950;145.008;2023-01-29T00:46:35;101016.82;;;23.80;52.33
54870;BME280;40756;-37.950;145.008;2023-01-29T00:49:05;101010.86;;;23.51;51.76
54870;BME280;40756;-37.950;145.008;2023-01-29T00:51:36;101011.86;;;23.80;51.63
54870;BME280;40756;-37.950;145.008;2023-01-29T00:54:07;101024.71;;;22.96;52.29
54870;BME280;40756;-37.950;145.008;2023-01-29T00:56:37;101032.97;;;23.12;52.74
54870;BME280;40756;-37.950;145.008;2023-01-29T00:59:06;101032.54;;;23.03;52.35
54870;BME280;40756;-37.950;145.008;2023-01-29T01:01:36;101034.90;;;23.00;53.81
54870;BME280;40756;-37.950;145.008;2023-01-29T01:04:06;101038.62;;;23.37;52.86
54870;BME280;40756;-37.950;145.008;2023-01-29T01:06:38;101034.74;;;23.54;52.46
54870;BME280;40756;-37.950;145.008;2023-01-29T01:09:09;101031.14;;;23.22;52.87
54870;BME280;40756;-37.950;145.008;2023-01-29T01:11:39;101028.80;;;23.34;52.89
54870;BME280;40756;-37.950;145.008;2023-01-29T01:14:08;101027.34;;;23.85;51.85
54870;BME280;40756;-37.950;145.008;2023-01-29T01:16:37;101020.41;;;23.30;52.61
54870;BME280;40756;-37.950;145.008;2023-01-29T01:19:07;101020.86;;;23.36;52.30
54870;BME280;40756;-37.950;145.008;2023-01-29T01:21:36;101012.87;;;23.65;52.25
54870;BME280;40756;-37.950;145.008;2023-01-29T01:24:06;101005.92;;;23.31;52.89
54870;BME280;40756;-37.950;145.008;2023-01-29T01:26:36;101003.22;;;23.63;52.02
54870;BME280;40756;-37.950;145.008;2023-01-29T01:29:05;101002.88;;;23.50;52.39
54870;BME280;40756;-37.950;145.008;2023-01-29T01:31:35;100993.87;;;23.19;52.28
54870;BME280;40756;-37.950;145.008;2023-01-29T01:34:05;100976.49;;;23.33;51.74
54870;BME280;40756;-37.950;145.008;2023-01-29T01:36:35;100961.65;;;23.38;51.28
54870;BME280;40756;-37.950;145.008;2023-01-29T01:39:04;100965.68;;;23.42;51.33
54870;BME280;40756;-37.950;145.008;2023-01-29T01:41:33;100978.03;;;23.11;52.20
54870;BME280;40756;-37.950;145.008;2023-01-29T01:44:04;100978.97;;;23.21;52.31
54870;BME280;40756;-37.950;145.008;2023-01-29T01:46:36;100973.65;;;23.74;51.96
54870;BME280;40756;-37.950;145.008;2023-01-29T01:49:09;100968.93;;;23.39;51.94
54870;BME280;40756;-37.950;145.008;2023-01-29T01:51:42;100979.84;;;23.07;52.61
54870;BME280;40756;-37.950;145.008;2023-01-29T01:54:16;100981.64;;;22.98;51.73
54870;BME280;40756;-37.950;145.008;2023-01-29T01:56:50;100973.12;;;22.77;52.48
54870;BME280;40756;-37.950;145.008;2023-01-29T01:59:22;100966.59;;;23.15;52.07
54870;BME280;40756;-37.950;145.008;2023-01-29T02:01:54;100971.04;;;22.60;53.11
54870;BME280;40756;-37.950;145.008;2023-01-29T02:04:25;100972.53;;;22.88;52.86
54870;BME280;40756;-37.950;145.008;2023-01-29T02:06:56;100972.19;;;22.70;53.59
54870;BME280;40756;-37.950;145.008;2023-01-29T02:09:31;100967.57;;;22.85;53.63
54870;BME280;40756;-37.950;145.008;2023-01-29T02:12:06;100962.82;;;23.37;52.81
54870;BME280;40756;-37.950;145.008;2023-01-29T02:14:38;100961.69;;;23.21;52.47
54870;BME280;40756;-37.950;145.008;2023-01-29T02:17:10;100958.58;;;23.06;52.74
54870;BME280;40756;-37.950;145.008;2023-01-29T02:19:45;100963.85;;;23.56;52.65
54870;BME280;40756;-37.950;145.008;2023-01-29T02:22:39;100973.94;;;23.16;52.32
54870;BME280;40756;-37.950;145.008;2023-01-29T02:25:30;100986.94;;;23.02;52.76
54870;BME280;40756;-37.950;145.008;2023-01-29T02:28:15;100988.17;;;23.55;51.92
54870;BME280;40756;-37.950;145.008;2023-01-29T02:30:54;100999.42;;;23.26;51.63
54870;BME280;40756;-37.950;145.008;2023-01-29T02:33:35;100998.87;;;23.54;51.46
54870;BME280;40756;-37.950;145.008;2023-01-29T02:36:19;100997.60;;;23.37;51.86
54870;BME280;40756;-37.950;145.008;2023-01-29T02:38:59;100998.40;;;23.38;52.19
54870;BME280;40756;-37.950;145.008;2023-01-29T02:41:33;100994.93;;;23.46;51.92
54870;BME280;40756;-37.950;145.008;2023-01-29T02:44:14;100993.82;;;23.50;51.67
54870;BME280;40756;-37.950;145.008;2023-01-29T02:46:50;100989.70;;;23.67;51.42
54870;BME280;40756;-37.950;145.008;2023-01-29T02:49:33;101001.40;;;23.71;51.20
54870;BME280;40756;-37.950;145.008;2023-01-29T02:52:07;101021.05;;;23.46;50.82
54870;BME280;40756;-37.950;145.008;2023-01-29T02:54:43;101028.38;;;24.00;50.56
54870;BME280;40756;-37.950;145.008;2023-01-29T02:57:19;101008.06;;;23.62;50.08
54870;BME280;40756;-37.950;145.008;2023-01-29T02:59:53;100998.84;;;24.16;49.91
54870;BME280;40756;-37.950;145.008;2023-01-29T03:02:29;101000.70;;;24.04;49.02
54870;BME280;40756;-37.950;145.008;2023-01-29T03:05:04;101006.14;;;24.08;48.75
54870;BME280;40756;-37.950;145.008;2023-01-29T03:07:41;101009.71;;;24.11;48.53
54870;BME280;40756;-37.950;145.008;2023-01-29T03:10:16;101009.61;;;24.25;48.57
54870;BME280;40756;-37.950;145.008;2023-01-29T03:12:52;101016.78;;;24.49;48.24
54870;BME280;40756;-37.950;145.008;2023-01-29T03:15:27;101014.07;;;24.58;48.24
54870;BME280;40756;-37.950;145.008;2023-01-29T03:18:04;101007.02;;;24.22;48.29
54870;BME280;40756;-37.950;145.008;2023-01-29T03:20:38;101006.90;;;23.87;48.34
54870;BME280;40756;-37.950;145.008;2023-01-29T03:23:13;101013.22;;;23.98;47.84
54870;BME280;40756;-37.950;145.008;2023-01-29T03:25:45;101007.00;;;23.75;48.62
54870;BME280;40756;-37.950;145.008;2023-01-29T03:28:17;101009.82;;;23.88;48.52
54870;BME280;40756;-37.950;145.008;2023-01-29T03:30:49;101014.12;;;23.65;48.91
54870;BME280;40756;-37.950;145.008;2023-01-29T03:33:22;101013.30;;;23.80;48.72
54870;BME280;40756;-37.950;145.008;2023-01-29T03:36:00;101017.38;;;23.82;48.59
54870;BME280;40756;-37.950;145.008;2023-01-29T03:38:33;101023.82;;;23.86;49.19
54870;BME280;40756;-37.950;145.008;2023-01-29T03:41:07;101038.28;;;24.01;48.21
54870;BME280;40756;-37.950;145.008;2023-01-29T03:43:46;101037.88;;;24.09;48.24
54870;BME280;40756;-37.950;145.008;2023-01-29T03:46:24;101038.89;;;24.39;47.87
54870;BME280;40756;-37.950;145.008;2023-01-29T03:49:00;101034.98;;;24.39;47.83
54870;BME280;40756;-37.950;145.008;2023-01-29T03:51:35;101027.40;;;24.05;47.91
54870;BME280;40756;-37.950;145.008;2023-01-29T03:54:14;101025.77;;;24.34;47.35
54870;BME280;40756;-37.950;145.008;2023-01-29T03:56:55;101022.76;;;23.67;47.23
54870;BME280;40756;-37.950;145.008;2023-01-29T03:59:34;101026.93;;;23.61;48.01
54870;BME280;40756;-37.950;145.008;2023-01-29T04:02:10;101017.24;;;23.90;48.06
54870;BME280;40756;-37.950;145.008;2023-01-29T04:04:44;101008.40;;;23.52;48.53
54870;BME280;40756;-37.950;145.008;2023-01-29T04:07:19;101012.00;;;23.92;48.66
54870;BME280;40756;-37.950;145.008;2023-01-29T04:09:51;101017.58;;;23.91;48.04
54870;BME280;40756;-37.950;145.008;2023-01-29T04:12:27;101019.29;;;23.59;48.06
54870;BME280;40756;-37.950;145.008;2023-01-29T04:14:59;101024.55;;;23.74;47.56
54870;BME280;40756;-37.950;145.008;2023-01-29T04:17:33;101023.45;;;23.83;47.43
54870;BME280;40756;-37.950;145.008;2023-01-29T04:20:06;101023.01;;;23.42;47.58
54870;BME280;40756;-37.950;145.008;2023-01-29T04:22:38;101017.95;;;23.56;48.38
54870;BME280;40756;-37.950;145.008;2023-01-29T04:25:11;101019.59;;;23.55;48.34
54870;BME280;40756;-37.950;145.008;2023-01-29T04:27:47;101019.65;;;23.61;47.92
54870;BME280;40756;-37.950;145.008;2023-01-29T04:30:27;101017.88;;;23.34;48.01
54870;BME280;40756;-37.950;145.008;2023-01-29T04:33:10;101020.85;;;23.55;47.75
54870;BME280;40756;-37.950;145.008;2023-01-29T04:35:50;101018.77;;;23.75;47.13
54870;BME280;40756;-37.950;145.008;2023-01-29T04:38:31;101018.19;;;23.44;47.72
54870;BME280;40756;-37.950;145.008;2023-01-29T04:41:07;101023.29;;;23.76;47.49
54870;BME280;40756;-37.950;145.008;2023-01-29T04:43:44;101029.44;;;23.26;47.86
54870;BME280;40756;-37.950;145.008;2023-01-29T04:46:21;101028.78;;;23.07;48.39
54870;BME280;40756;-37.950;145.008;2023-01-29T04:49:03;101033.23;;;23.18;48.66
54870;BME280;40756;-37.950;145.008;2023-01-29T04:51:46;101037.03;;;23.23;48.69
54870;BME280;40756;-37.950;145.008;2023-01-29T04:54:26;101034.86;;;22.99;48.75
54870;BME280;40756;-37.950;145.008;2023-01-29T04:57:02;101036.78;;;23.38;48.59
54870;BME280;40756;-37.950;145.008;2023-01-29T04:59:37;101041.52;;;23.07;48.88
54870;BME280;40756;-37.950;145.008;2023-01-29T05:02:12;101038.32;;;23.31;48.87
54870;BME280;40756;-37.950;145.008;2023-01-29T05:04:43;101036.85;;;22.77;49.70
54870;BME280;40756;-37.950;145.008;2023-01-29T05:07:15;101045.87;;;23.17;49.67
54870;BME280;40756;-37.950;145.008;2023-01-29T05:09:47;101051.23;;;23.70;49.00
54870;BME280;40756;-37.950;145.008;2023-01-29T05:12:18;101051.18;;;23.62;48.99
54870;BME280;40756;-37.950;145.008;2023-01-29T05:14:49;101040.76;;;23.41;48.72
54870;BME280;40756;-37.950;145.008;2023-01-29T05:17:20;101023.13;;;23.69;48.98
54870;BME280;40756;-37.950;145.008;2023-01-29T05:19:50;101022.00;;;23.61;48.71
54870;BME280;40756;-37.950;145.008;2023-01-29T05:22:19;101023.27;;;23.76;48.21
54870;BME280;40756;-37.950;145.008;2023-01-29T05:24:49;101023.29;;;23.51;48.44
54870;BME280;40756;-37.950;145.008;2023-01-29T05:27:22;101023.00;;;23.37;48.34
54870;BME280;40756;-37.950;145.008;2023-01-29T05:29:52;101023.77;;;23.44;48.97
54870;BME280;40756;-37.950;145.008;2023-01-29T05:32:22;101027.85;;;23.61;48.49
54870;BME280;40756;-37.950;145.008;2023-01-29T05:34:51;101031.32;;;23.56;47.91
54870;BME280;40756;-37.950;145.008;2023-01-29T05:37:21;101032.03;;;23.63;47.84
54870;BME280;40756;-37.950;145.008;2023-01-29T05:39:50;101032.72;;;24.22;47.45
54870;BME280;40756;-37.950;145.008;2023-01-29T05:42:20;101029.63;;;23.72;47.27
54870;BME280;40756;-37.950;145.008;2023-01-29T05:44:50;101035.22;;;23.82;47.04
54870;BME280;40756;-37.950;145.008;2023-01-29T05:47:20;101036.07;;;24.02;47.10
54870;BME280;40756;-37.950;145.008;2023-01-29T05:49:49;101033.35;;;23.70;47.45
54870;BME280;40756;-37.950;145.008;2023-01-29T05:52:20;101034.00;;;23.65;47.33
54870;BME280;40756;-37.950;145.008;2023-01-29T05:54:49;101035.55;;;23.37;48.54
54870;BME280;40756;-37.950;145.008;2023-01-29T05:57:19;101034.28;;;23.37;48.02
54870;BME280;40756;-37.950;145.008;2023-01-29T05:59:48;101029.16;;;23.05;48.45
54870;BME280;40756;-37.950;145.008;2023-01-29T06:02:17;101019.94;;;23.29;48.78
54870;BME280;40756;-37.950;145.008;2023-01-29T06:04:49;101005.08;;;23.54;48.63
54870;BME280;40756;-37.950;145.008;2023-01-29T06:07:18;101000.02;;;23.27;48.93
54870;BME280;40756;-37.950;145.008;2023-01-29T06:09:48;101004.41;;;23.44;48.14
54870;BME280;40756;-37.950;145.008;2023-01-29T06:12:17;101010.36;;;23.49;48.05
54870;BME280;40756;-37.950;145.008;2023-01-29T06:14:46;101016.30;;;23.43;47.36
54870;BME280;40756;-37.950;145.008;2023-01-29T06:17:16;101010.68;;;23.76;47.56
54870;BME280;40756;-37.950;145.008;2023-01-29T06:19:46;101005.15;;;23.11;47.67
54870;BME280;40756;-37.950;145.008;2023-01-29T06:22:16;101011.45;;;23.23;47.64
54870;BME280;40756;-37.950;145.008;2023-01-29T06:24:45;101017.28;;;23.54;47.51
54870;BME280;40756;-37.950;145.008;2023-01-29T06:27:14;101019.93;;;23.32;47.25
54870;BME280;40756;-37.950;145.008;2023-01-29T06:29:44;101015.60;;;23.35;47.23
54870;BME280;40756;-37.950;145.008;2023-01-29T06:32:13;101014.34;;;23.29;47.76
54870;BME280;40756;-37.950;145.008;2023-01-29T06:34:43;101009.23;;;23.57;47.26
54870;BME280;40756;-37.950;145.008;2023-01-29T06:37:12;101005.99;;;23.53;47.52
54870;BME280;40756;-37.950;145.008;2023-01-29T06:39:42;101003.94;;;23.63;47.39
54870;BME280;40756;-37.950;145.008;2023-01-29T06:42:11;101006.44;;;23.33;47.11
54870;BME280;40756;-37.950;145.008;2023-01-29T06:44:41;100999.44;;;23.33;46.89
54870;BME280;40756;-37.950;145.008;2023-01-29T06:47:11;100992.61;;;23.82;47.01
54870;BME280;40756;-37.950;145.008;2023-01-29T06:49:40;100986.73;;;23.15;46.76
54870;BME280;40756;-37.950;145.008;2023-01-29T06:52:10;100987.61;;;23.37;47.51
54870;BME280;40756;-37.950;145.008;2023-01-29T06:54:40;100997.24;;;23.19;47.51
54870;BME280;40756;-37.950;145.008;2023-01-29T06:57:09;101005.24;;;23.29;47.51
54870;BME280;40756;-37.950;145.008;2023-01-29T06:59:39;101007.07;;;23.02;47.57
54870;BME280;40756;-37.950;145.008;2023-01-29T07:02:10;101010.78;;;23.45;47.25
54870;BME280;40756;-37.950;145.008;2023-01-29T07:04:39;101020.71;;;22.95;47.43
54870;BME280;40756;-37.950;145.008;2023-01-29T07:07:09;101030.08;;;23.25;47.37
54870;BME280;40756;-37.950;145.008;2023-01-29T07:09:39;101031.35;;;23.20;46.91
54870;BME280;40756;-37.950;145.008;2023-01-29T07:12:09;101034.53;;;23.52;47.08
54870;BME280;40756;-37.950;145.008;2023-01-29T07:14:39;101035.31;;;22.95;47.64
54870;BME280;40756;-37.950;145.008;2023-01-29T07:17:08;101033.23;;;23.10;47.59
54870;BME280;40756;-37.950;145.008;2023-01-29T07:19:38;101039.30;;;23.04;47.75
54870;BME280;40756;-37.950;145.008;2023-01-29T07:22:07;101051.64;;;22.87;47.77
54870;BME280;40756;-37.950;145.008;2023-01-29T07:24:37;101058.92;;;22.74;48.01
54870;BME280;40756;-37.950;145.008;2023-01-29T07:27:06;101057.09;;;22.75;48.03
54870;BME280;40756;-37.950;145.008;2023-01-29T07:29:35;101061.38;;;22.71;48.02
54870;BME280;40756;-37.950;145.008;2023-01-29T07:32:05;101065.65;;;22.63;48.09
54870;BME280;40756;-37.950;145.008;2023-01-29T07:34:35;101071.12;;;22.76;47.80
54870;BME280;40756;-37.950;145.008;2023-01-29T07:37:04;101072.49;;;22.48;48.00
54870;BME280;40756;-37.950;145.008;2023-01-29T07:39:33;101069.36;;;22.48;47.86
54870;BME280;40756;-37.950;145.008;2023-01-29T07:42:03;101073.38;;;22.83;47.52
54870;BME280;40756;-37.950;145.008;2023-01-29T07:44:32;101083.45;;;22.23;48.71
54870;BME280;40756;-37.950;145.008;2023-01-29T07:47:03;101098.91;;;22.31;48.51
54870;BME280;40756;-37.950;145.008;2023-01-29T07:49:32;101106.12;;;22.34;49.07
54870;BME280;40756;-37.950;145.008;2023-01-29T07:52:01;101118.61;;;22.37;48.67
54870;BME280;40756;-37.950;145.008;2023-01-29T07:54:31;101130.96;;;22.40;48.74
54870;BME280;40756;-37.950;145.008;2023-01-29T07:57:01;101132.21;;;21.49;49.46
54870;BME280;40756;-37.950;145.008;2023-01-29T07:59:31;101129.79;;;22.16;49.36
54870;BME280;40756;-37.950;145.008;2023-01-29T08:02:00;101128.33;;;22.10;48.94
54870;BME280;40756;-37.950;145.008;2023-01-29T08:04:30;101124.96;;;22.34;48.90
54870;BME280;40756;-37.950;145.008;2023-01-29T08:06:59;101124.26;;;21.96;49.27
54870;BME280;40756;-37.950;145.008;2023-01-29T08:09:29;101122.62;;;22.25;48.97
54870;BME280;40756;-37.950;145.008;2023-01-29T08:11:58;101116.63;;;22.60;48.65
54870;BME280;40756;-37.950;145.008;2023-01-29T08:14:28;101121.47;;;21.96;48.85
54870;BME280;40756;-37.950;145.008;2023-01-29T08:16:57;101119.05;;;22.35;48.60
54870;BME280;40756;-37.950;145.008;2023-01-29T08:19:26;101117.46;;;21.96;48.60
54870;BME280;40756;-37.950;145.008;2023-01-29T08:21:56;101119.10;;;22.32;48.51
54870;BME280;40756;-37.950;145.008;2023-01-29T08:24:25;101121.45;;;22.07;48.77
54870;BME280;40756;-37.950;145.008;2023-01-29T08:26:55;101120.97;;;22.03;48.63
54870;BME280;40756;-37.950;145.008;2023-01-29T08:29:24;101123.75;;;21.46;48.91
54870;BME280;40756;-37.950;145.008;2023-01-29T08:31:54;101121.53;;;22.08;48.26
54870;BME280;40756;-37.950;145.008;2023-01-29T08:34:23;101121.51;;;21.58;48.67
54870;BME280;40756;-37.950;145.008;2023-01-29T08:36:53;101123.82;;;21.49;48.70
54870;BME280;40756;-37.950;145.008;2023-01-29T08:39:22;101114.09;;;22.04;48.59
54870;BME280;40756;-37.950;145.008;2023-01-29T08:41:52;101109.93;;;21.99;48.38
54870;BME280;40756;-37.950;145.008;2023-01-29T08:44:21;101117.79;;;22.12;48.42
54870;BME280;40756;-37.950;145.008;2023-01-29T08:46:51;101120.91;;;21.85;47.93
54870;BME280;40756;-37.950;145.008;2023-01-29T08:49:21;101121.97;;;22.04;47.97
54870;BME280;40756;-37.950;145.008;2023-01-29T08:51:51;101125.52;;;21.77;48.45
54870;BME280;40756;-37.950;145.008;2023-01-29T08:54:20;101129.12;;;21.70;48.26
54870;BME280;40756;-37.950;145.008;2023-01-29T08:56:50;101123.83;;;21.99;47.99
54870;BME280;40756;-37.950;145.008;2023-01-29T08:59:20;101123.65;;;21.56;48.66
54870;BME280;40756;-37.950;145.008;2023-01-29T09:01:49;101120.74;;;21.68;48.44
54870;BME280;40756;-37.950;145.008;2023-01-29T09:04:19;101126.99;;;21.51;48.11
54870;BME280;40756;-37.950;145.008;2023-01-29T09:06:48;101122.70;;;22.02;47.88
54870;BME280;40756;-37.950;145.008;2023-01-29T09:09:18;101127.80;;;21.64;47.80
54870;BME280;40756;-37.950;145.008;2023-01-29T09:11:47;101135.22;;;21.35;48.30
54870;BME280;40756;-37.950;145.008;2023-01-29T09:14:17;101135.88;;;21.76;47.75
54870;BME280;40756;-37.950;145.008;2023-01-29T09:16:46;101140.16;;;21.44;47.92
54870;BME280;40756;-37.950;145.008;2023-01-29T09:19:16;101147.17;;;21.63;47.77
54870;BME280;40756;-37.950;145.008;2023-01-29T09:21:45;101145.56;;;21.16;48.14
54870;BME280;40756;-37.950;145.008;2023-01-29T09:24:15;101147.20;;;21.25;47.77
54870;BME280;40756;-37.950;145.008;2023-01-29T09:26:44;101151.10;;;21.28;47.43
54870;BME280;40756;-37.950;145.008;2023-01-29T09:29:14;101153.51;;;21.01;47.72
54870;BME280;40756;-37.950;145.008;2023-01-29T09:31:43;101157.67;;;20.74;48.00
54870;BME280;40756;-37.950;145.008;2023-01-29T09:34:13;101156.78;;;21.14;47.64
54870;BME280;40756;-37.950;145.008;2023-01-29T09:36:42;101156.96;;;21.16;47.79
54870;BME280;40756;-37.950;145.008;2023-01-29T09:39:12;101158.25;;;21.14;47.08
54870;BME280;40756;-37.950;145.008;2023-01-29T09:41:51;101158.33;;;21.14;46.69
54870;BME280;40756;-37.950;145.008;2023-01-29T09:44:44;101162.47;;;21.57;46.52
54870;BME280;40756;-37.950;145.008;2023-01-29T09:47:17;101171.41;;;21.04;46.48
54870;BME280;40756;-37.950;145.008;2023-01-29T09:49:51;101180.70;;;20.77;47.17
54870;BME280;40756;-37.950;145.008;2023-01-29T09:52:26;101184.62;;;20.79;47.19
54870;BME280;40756;-37.950;145.008;2023-01-29T09:55:04;101186.52;;;20.68;47.16
54870;BME280;40756;-37.950;145.008;2023-01-29T09:57:40;101191.79;;;20.72;47.11
54870;BME280;40756;-37.950;145.008;2023-01-29T10:00:17;101193.54;;;20.71;46.42
54870;BME280;40756;-37.950;145.008;2023-01-29T10:03:01;101195.01;;;20.90;46.57
54870;BME280;40756;-37.950;145.008;2023-01-29T10:05:45;101196.88;;;20.85;46.42
54870;BME280;40756;-37.950;145.008;2023-01-29T10:08:30;101200.68;;;20.93;46.34
54870;BME280;40756;-37.950;145.008;2023-01-29T10:11:11;101206.01;;;20.15;47.02
54870;BME280;40756;-37.950;145.008;2023-01-29T10:13:51;101208.81;;;20.66;46.36
54870;BME280;40756;-37.950;145.008;2023-01-29T10:16:37;101212.34;;;20.68;46.60
54870;BME280;40756;-37.950;145.008;2023-01-29T10:19:28;101218.54;;;20.74;46.61
54870;BME280;40756;-37.950;145.008;2023-01-29T10:22:22;101225.18;;;20.78;46.23
54870;BME280;40756;-37.950;145.008;2023-01-29T10:24:59;101227.18;;;20.67;46.28
54870;BME280;40756;-37.950;145.008;2023-01-29T10:27:33;101226.86;;;20.75;45.97
54870;BME280;40756;-37.950;145.008;2023-01-29T10:30:18;101231.65;;;20.90;45.96
54870;BME280;40756;-37.950;145.008;2023-01-29T10:32:50;101235.63;;;21.10;45.51
54870;BME280;40756;-37.950;145.008;2023-01-29T10:35:22;101234.99;;;20.76;45.61
54870;BME280;40756;-37.950;145.008;2023-01-29T10:37:53;101240.85;;;20.72;45.48
54870;BME280;40756;-37.950;145.008;2023-01-29T10:40:32;101242.53;;;20.72;45.22
54870;BME280;40756;-37.950;145.008;2023-01-29T10:43:09;101241.19;;;21.04;45.75
54870;BME280;40756;-37.950;145.008;2023-01-29T10:45:48;101243.29;;;20.68;45.38
54870;BME280;40756;-37.950;145.008;2023-01-29T10:49:00;101247.69;;;21.06;45.08
54870;BME280;40756;-37.950;145.008;2023-01-29T10:51:48;101250.51;;;21.11;45.03
54870;BME280;40756;-37.950;145.008;2023-01-29T10:54:33;101252.14;;;20.74;45.59
54870;BME280;40756;-37.950;145.008;2023-01-29T10:57:13;101254.85;;;20.67;45.37
54870;BME280;40756;-37.950;145.008;2023-01-29T10:59:58;101259.36;;;20.87;45.32
54870;BME280;40756;-37.950;145.008;2023-01-29T11:02:32;101258.92;;;20.81;45.38
54870;BME280;40756;-37.950;145.008;2023-01-29T11:05:01;101258.94;;;20.51;45.56
54870;BME280;40756;-37.950;145.008;2023-01-29T11:07:31;101260.94;;;20.18;46.32
54870;BME280;40756;-37.950;145.008;2023-01-29T11:10:06;101256.22;;;20.15;46.39
54870;BME280;40756;-37.950;145.008;2023-01-29T11:12:39;101257.81;;;20.66;46.09
54870;BME280;40756;-37.950;145.008;2023-01-29T11:15:18;101261.63;;;20.86;45.88
54870;BME280;40756;-37.950;145.008;2023-01-29T11:18:07;101263.79;;;20.60;45.59
54870;BME280;40756;-37.950;145.008;2023-01-29T11:20:36;101261.53;;;20.89;45.11
54870;BME280;40756;-37.950;145.008;2023-01-29T11:23:17;101263.68;;;20.85;45.38
54870;BME280;40756;-37.950;145.008;2023-01-29T11:25:54;101263.81;;;20.88;45.10
54870;BME280;40756;-37.950;145.008;2023-01-29T11:28:41;101259.53;;;21.02;45.00
54870;BME280;40756;-37.950;145.008;2023-01-29T11:31:28;101258.71;;;20.91;45.05
54870;BME280;40756;-37.950;145.008;2023-01-29T11:34:12;101256.02;;;21.20;44.71
54870;BME280;40756;-37.950;145.008;2023-01-29T11:36:42;101249.72;;;20.91;44.79
54870;BME280;40756;-37.950;145.008;2023-01-29T11:39:17;101245.34;;;20.83;44.86
54870;BME280;40756;-37.950;145.008;2023-01-29T11:41:51;101242.12;;;21.08;44.89
54870;BME280;40756;-37.950;145.008;2023-01-29T11:44:27;101236.70;;;21.07;45.04
54870;BME280;40756;-37.950;145.008;2023-01-29T11:47:09;101231.96;;;21.22;45.00
54870;BME280;40756;-37.950;145.008;2023-01-29T11:49:43;101228.50;;;21.20;44.97
54870;BME280;40756;-37.950;145.008;2023-01-29T11:52:16;101221.98;;;21.03;44.86
54870;BME280;40756;-37.950;145.008;2023-01-29T11:54:51;101223.36;;;21.04;45.17
54870;BME280;40756;-37.950;145.008;2023-01-29T11:57:26;101221.47;;;21.02;44.79
54870;BME280;40756;-37.950;145.008;2023-01-29T11:59:59;101220.62;;;21.24;44.90
54870;BME280;40756;-37.950;145.008;2023-01-29T12:02:35;101220.82;;;20.92;44.84
54870;BME280;40756;-37.950;145.008;2023-01-29T12:05:12;101214.87;;;21.11;44.90
54870;BME280;40756;-37.950;145.008;2023-01-29T12:07:45;101212.09;;;20.82;44.60
54870;BME280;40756;-37.950;145.008;2023-01-29T12:10:34;101209.81;;;20.49;45.49
54870;BME280;40756;-37.950;145.008;2023-01-29T12:13:14;101207.47;;;20.54;45.18
54870;BME280;40756;-37.950;145.008;2023-01-29T12:15:50;101211.94;;;20.98;45.07
54870;BME280;40756;-37.950;145.008;2023-01-29T12:18:38;101208.04;;;20.58;45.78
54870;BME280;40756;-37.950;145.008;2023-01-29T12:21:16;101205.33;;;20.41;45.99
54870;BME280;40756;-37.950;145.008;2023-01-29T12:23:52;101198.98;;;20.49;45.47
54870;BME280;40756;-37.950;145.008;2023-01-29T12:26:30;101197.69;;;20.54;45.34
54870;BME280;40756;-37.950;145.008;2023-01-29T12:29:16;101196.02;;;20.54;45.42
54870;BME280;40756;-37.950;145.008;2023-01-29T12:31:55;101196.19;;;20.23;45.52
54870;BME280;40756;-37.950;145.008;2023-01-29T12:34:36;101193.95;;;20.85;45.46
54870;BME280;40756;-37.950;145.008;2023-01-29T12:37:15;101194.90;;;20.73;45.23
54870;BME280;40756;-37.950;145.008;2023-01-29T12:39:47;101196.09;;;20.66;45.13
54870;BME280;40756;-37.950;145.008;2023-01-29T12:42:20;101193.48;;;20.82;45.12
54870;BME280;40756;-37.950;145.008;2023-01-29T12:44:53;101198.54;;;20.45;45.36
54870;BME280;40756;-37.950;145.008;2023-01-29T12:47:27;101199.22;;;20.68;45.48
54870;BME280;40756;-37.950;145.008;2023-01-29T12:50:04;101195.27;;;20.81;45.31
54870;BME280;40756;-37.950;145.008;2023-01-29T12:52:40;101197.11;;;20.84;45.15